createdAt,value
2018-06-14T00:00:19.166Z,13.50
2018-06-14T00:01:24.866Z,13.43
2018-06-14T00:02:30.406Z,10.63
2018-06-14T00:03:35.821Z,12.73
2018-06-14T00:04:41.270Z,12.47
2018-06-14T00:05:46.844Z,11.17
2018-06-14T00:06:52.411Z,13.00
2018-06-14T00:07:57.504Z,10.40
2018-06-14T00:09:02.892Z,16.07
2018-06-14T00:10:08.646Z,13.40
2018-06-14T00:11:14.077Z,17.70
2018-06-14T00:12:19.780Z,18.50
2018-06-14T00:13:25.189Z,18.33
2018-06-14T00:14:30.671Z,14.13
2018-06-14T00:15:36.151Z,13.97
2018-06-14T00:16:41.583Z,12.57
2018-06-14T00:17:47.071Z,16.07
2018-06-14T00:18:52.528Z,13.83
2018-06-14T00:19:57.942Z,15.60
2018-06-14T00:21:03.702Z,20.23
2018-06-14T00:22:09.105Z,18.00
2018-06-14T00:23:14.685Z,15.27
2018-06-14T00:24:20.469Z,17.73
2018-06-14T00:25:25.881Z,17.80
2018-06-14T00:26:31.343Z,14.40
2018-06-14T00:27:36.753Z,12.70
2018-06-14T00:28:42.200Z,21.30
2018-06-14T00:29:47.601Z,15.40
2018-06-14T00:30:52.997Z,13.10
2018-06-14T00:31:58.517Z,12.57
2018-06-14T00:33:03.930Z,16.47
2018-06-14T00:34:09.390Z,15.23
2018-06-14T00:35:14.815Z,15.70
2018-06-14T00:36:20.262Z,15.70
2018-06-14T00:37:25.661Z,11.80
2018-06-14T00:38:31.449Z,14.50
2018-06-14T00:39:37.280Z,12.27
2018-06-14T00:40:42.840Z,16.60
2018-06-14T00:41:48.268Z,17.37
2018-06-14T00:42:53.755Z,11.63
2018-06-14T00:43:58.839Z,12.90
2018-06-14T00:45:04.237Z,13.13
2018-06-14T00:46:09.713Z,18.47
2018-06-14T00:47:15.410Z,16.03
2018-06-14T00:48:20.855Z,14.57
2018-06-14T00:49:26.489Z,13.80
2018-06-14T00:50:31.935Z,12.37
2018-06-14T00:51:37.296Z,18.20
2018-06-14T00:52:42.685Z,15.00
2018-06-14T00:53:48.116Z,13.13
2018-06-14T00:54:53.667Z,12.43
2018-06-14T00:55:59.109Z,17.67
2018-06-14T00:57:27.626Z,18.23
2018-06-14T00:58:33.079Z,13.10
2018-06-14T00:59:38.490Z,12.27
2018-06-14T01:00:43.926Z,17.43
2018-06-14T01:01:49.713Z,12.17
2018-06-14T01:02:55.150Z,17.60
2018-06-14T01:04:00.932Z,17.50
2018-06-14T01:05:06.574Z,15.57
2018-06-14T01:06:12.125Z,13.07
2018-06-14T01:07:17.562Z,17.93
2018-06-14T01:08:22.967Z,14.43
2018-06-14T01:09:28.419Z,9.93
2018-06-14T01:10:34.308Z,12.60
2018-06-14T01:11:40.272Z,23.03
2018-06-14T01:12:45.893Z,17.13
2018-06-14T01:13:51.317Z,16.33
2018-06-14T01:14:56.878Z,14.90
2018-06-14T01:16:02.509Z,15.07
2018-06-14T01:17:08.608Z,13.30
2018-06-14T01:18:14.049Z,14.30
2018-06-14T01:19:19.462Z,18.33
2018-06-14T01:20:24.998Z,16.90
2018-06-14T01:21:31.142Z,10.30
2018-06-14T01:22:36.612Z,11.20
2018-06-14T01:23:42.014Z,14.40
2018-06-14T01:24:47.484Z,12.93
2018-06-14T01:25:52.938Z,14.40
2018-06-14T01:26:58.645Z,11.77
2018-06-14T01:28:04.160Z,15.17
2018-06-14T01:29:09.556Z,11.30
2018-06-14T01:30:14.993Z,15.03
2018-06-14T01:31:20.862Z,12.37
2018-06-14T01:32:26.709Z,17.93
2018-06-14T01:33:32.108Z,16.30
2018-06-14T01:34:37.580Z,24.50
2018-06-14T01:35:43.055Z,15.53
2018-06-14T01:36:48.582Z,14.87
2018-06-14T01:38:10.694Z,14.47
2018-06-14T01:39:16.103Z,11.97
2018-06-14T01:40:21.561Z,12.83
2018-06-14T01:41:26.989Z,14.67
2018-06-14T01:42:32.402Z,13.63
2018-06-14T01:43:38.170Z,16.57
2018-06-14T01:44:43.630Z,12.13
2018-06-14T01:45:49.039Z,16.50
2018-06-14T01:46:54.441Z,13.60
2018-06-14T01:47:59.963Z,15.93
2018-06-14T01:49:05.730Z,13.27
2018-06-14T01:50:11.191Z,14.23
2018-06-14T01:51:16.617Z,15.20
2018-06-14T01:52:22.001Z,14.20
2018-06-14T01:53:27.422Z,13.27
2018-06-14T01:54:33.198Z,13.43
2018-06-14T01:55:38.739Z,13.70
2018-06-14T01:56:44.256Z,17.13
2018-06-14T01:57:49.716Z,16.77
2018-06-14T01:58:55.107Z,15.30
2018-06-14T02:00:00.989Z,17.30
2018-06-14T02:01:06.446Z,13.50
2018-06-14T02:02:12.159Z,15.03
2018-06-14T02:03:17.581Z,15.57
2018-06-14T02:04:23.026Z,15.33
2018-06-14T02:05:28.885Z,15.23
2018-06-14T02:06:34.370Z,18.67
2018-06-14T02:07:39.822Z,16.10
2018-06-14T02:08:45.241Z,15.80
2018-06-14T02:09:50.653Z,17.80
2018-06-14T02:10:56.314Z,14.90
2018-06-14T02:12:01.787Z,15.00
2018-06-14T02:13:07.249Z,12.70
2018-06-14T02:14:12.781Z,13.03
2018-06-14T02:15:18.221Z,16.70
2018-06-14T02:16:23.833Z,17.00
2018-06-14T02:17:29.297Z,14.70
2018-06-14T02:18:34.731Z,14.50
2018-06-14T02:19:40.201Z,18.53
2018-06-14T02:20:45.629Z,16.30
2018-06-14T02:21:51.621Z,18.67
2018-06-14T02:22:57.065Z,16.63
2018-06-14T02:24:02.466Z,13.83
2018-06-14T02:25:07.892Z,13.23
2018-06-14T02:26:13.341Z,15.90
2018-06-14T02:27:18.774Z,16.73
2018-06-14T02:28:24.196Z,15.43
2018-06-14T02:29:29.645Z,16.43
2018-06-14T02:30:35.121Z,17.20
2018-06-14T02:31:40.590Z,15.30
2018-06-14T02:32:46.333Z,16.33
2018-06-14T02:33:51.766Z,14.13
2018-06-14T02:34:57.170Z,17.57
2018-06-14T02:36:02.658Z,17.33
2018-06-14T02:37:08.142Z,14.40
2018-06-14T02:38:13.631Z,16.30
2018-06-14T02:39:19.111Z,15.93
2018-06-14T02:40:24.531Z,22.10
2018-06-14T02:41:29.965Z,17.57
2018-06-14T02:42:35.576Z,17.53
2018-06-14T02:43:41.350Z,13.93
2018-06-14T02:44:46.862Z,16.83
2018-06-14T02:45:52.263Z,14.93
2018-06-14T02:46:57.673Z,15.83
2018-06-14T02:48:03.114Z,17.70
2018-06-14T02:49:09.072Z,14.10
2018-06-14T02:50:14.525Z,13.23
2018-06-14T02:51:20.010Z,13.30
2018-06-14T02:52:25.434Z,16.87
2018-06-14T02:53:31.247Z,16.93
2018-06-14T02:54:36.700Z,15.73
2018-06-14T02:55:42.153Z,11.83
2018-06-14T02:56:47.549Z,15.70
2018-06-14T02:57:52.953Z,21.00
2018-06-14T02:58:58.373Z,15.33
2018-06-14T03:00:03.893Z,18.40
2018-06-14T03:01:09.312Z,15.00
2018-06-14T03:02:14.740Z,16.73
2018-06-14T03:03:20.155Z,14.03
2018-06-14T03:04:25.722Z,17.70
2018-06-14T03:05:31.188Z,15.73
2018-06-14T03:06:36.614Z,13.20
2018-06-14T03:07:42.034Z,18.37
2018-06-14T03:08:47.445Z,19.30
2018-06-14T03:09:52.874Z,16.93
2018-06-14T03:10:58.349Z,16.57
2018-06-14T03:12:03.948Z,14.93
2018-06-14T03:13:09.438Z,16.70
2018-06-14T03:14:14.923Z,16.83
2018-06-14T03:15:20.381Z,16.40
2018-06-14T03:16:25.796Z,14.27
2018-06-14T03:17:31.365Z,20.07
2018-06-14T03:18:36.878Z,20.10
2018-06-14T03:19:42.422Z,18.00
2018-06-14T03:20:47.958Z,16.13
2018-06-14T03:21:53.470Z,14.90
2018-06-14T03:22:59.517Z,17.83
2018-06-14T03:24:05.054Z,19.30
2018-06-14T03:25:10.638Z,20.37
2018-06-14T03:26:15.941Z,14.47
2018-06-14T03:27:21.281Z,17.80
2018-06-14T03:28:27.237Z,16.80
2018-06-14T03:29:32.685Z,18.17
2018-06-14T03:30:38.169Z,18.00
2018-06-14T03:31:43.789Z,17.73
2018-06-14T03:32:50.318Z,19.63
2018-06-14T03:33:55.773Z,18.67
2018-06-14T03:35:01.213Z,17.63
2018-06-14T03:36:06.676Z,18.60
2018-06-14T03:37:12.203Z,19.37
2018-06-14T03:38:17.826Z,25.13
2018-06-14T03:39:23.251Z,18.03
2018-06-14T03:40:29.060Z,17.37
2018-06-14T03:41:34.470Z,17.50
2018-06-14T03:42:46.822Z,24.90
2018-06-14T03:43:52.452Z,18.87
2018-06-14T03:44:57.970Z,19.90
2018-06-14T03:46:03.460Z,20.07
2018-06-14T03:47:09.279Z,19.87
2018-06-14T03:48:14.693Z,25.30
2018-06-14T03:49:19.865Z,22.70
2018-06-14T03:50:25.502Z,19.67
2018-06-14T03:51:30.953Z,20.70
2018-06-14T03:52:36.522Z,22.77
2018-06-14T03:53:41.945Z,23.60
2018-06-14T03:54:47.401Z,18.23
2018-06-14T03:55:52.858Z,15.30
2018-06-14T03:56:58.251Z,17.27
2018-06-14T03:58:03.745Z,15.70
2018-06-14T03:59:09.223Z,15.30
2018-06-14T04:00:14.630Z,17.00
2018-06-14T04:01:20.158Z,16.40
2018-06-14T04:02:25.280Z,18.90
2018-06-14T04:03:30.593Z,16.97
2018-06-14T04:04:35.996Z,17.20
2018-06-14T04:05:41.585Z,15.53
2018-06-14T04:06:47.446Z,16.07
2018-06-14T04:07:52.858Z,18.67
2018-06-14T04:08:58.342Z,15.77
2018-06-14T04:10:03.870Z,17.93
2018-06-14T04:11:09.282Z,18.30
2018-06-14T04:12:14.778Z,13.70
2018-06-14T04:13:20.182Z,17.80
2018-06-14T04:14:25.623Z,14.60
2018-06-14T04:15:31.078Z,14.87
2018-06-14T04:16:37.641Z,15.63
2018-06-14T04:17:43.109Z,13.53
2018-06-14T04:18:48.526Z,17.97
2018-06-14T04:19:54.033Z,14.07
2018-06-14T04:20:59.465Z,16.47
2018-06-14T04:22:04.929Z,14.63
2018-06-14T04:23:10.406Z,15.77
2018-06-14T04:24:15.686Z,20.10
2018-06-14T04:25:21.166Z,16.50
2018-06-14T04:26:26.969Z,16.87
2018-06-14T04:27:32.467Z,13.97
2018-06-14T04:28:37.912Z,14.37
2018-06-14T04:29:43.778Z,15.03
2018-06-14T04:30:49.206Z,21.27
2018-06-14T04:31:54.593Z,15.23
2018-06-14T04:33:00.161Z,16.40
2018-06-14T04:34:05.684Z,16.30
2018-06-14T04:35:11.102Z,15.07
2018-06-14T04:36:16.543Z,13.93
2018-06-14T04:37:21.984Z,14.20
2018-06-14T04:38:27.393Z,15.20
2018-06-14T04:39:32.818Z,11.20
2018-06-14T04:40:38.228Z,15.90
2018-06-14T04:41:43.673Z,19.03
2018-06-14T04:42:49.518Z,16.17
2018-06-14T04:43:54.953Z,16.23
2018-06-14T04:45:00.374Z,14.20
2018-06-14T04:46:06.290Z,13.27
2018-06-14T04:47:11.804Z,12.27
2018-06-14T04:48:17.345Z,15.10
2018-06-14T04:49:22.864Z,12.90
2018-06-14T04:50:28.301Z,13.50
2018-06-14T04:51:37.757Z,13.23
2018-06-14T04:52:43.174Z,16.47
2018-06-14T04:53:48.754Z,12.93
2018-06-14T04:54:54.201Z,16.57
2018-06-14T04:55:59.660Z,13.17
2018-06-14T04:57:05.685Z,15.00
2018-06-14T04:58:11.604Z,15.70
2018-06-14T04:59:17.016Z,12.23
2018-06-14T05:00:22.594Z,14.70
2018-06-14T05:01:28.080Z,12.43
2018-06-14T05:02:33.504Z,9.20
2018-06-14T05:03:39.108Z,14.90
2018-06-14T05:04:44.713Z,12.43
2018-06-14T05:05:50.249Z,17.90
2018-06-14T05:06:55.398Z,12.37
2018-06-14T05:08:00.721Z,14.87
2018-06-14T05:09:10.714Z,12.40
2018-06-14T05:10:16.782Z,13.47
2018-06-14T05:11:22.193Z,13.63
2018-06-14T05:12:27.635Z,13.83
2018-06-14T05:13:33.126Z,18.30
2018-06-14T05:14:38.635Z,14.27
2018-06-14T05:15:44.083Z,10.70
2018-06-14T05:16:49.576Z,17.23
2018-06-14T05:17:55.252Z,16.00
2018-06-14T05:19:00.702Z,14.17
2018-06-14T05:20:06.669Z,14.73
2018-06-14T05:21:12.086Z,18.20
2018-06-14T05:22:17.488Z,12.03
2018-06-14T05:23:22.920Z,14.87
2018-06-14T05:24:28.346Z,22.50
2018-06-14T05:25:33.876Z,15.87
2018-06-14T05:26:39.294Z,18.60
2018-06-14T05:27:44.707Z,19.03
2018-06-14T05:28:50.153Z,16.07
2018-06-14T05:29:55.606Z,19.23
2018-06-14T05:31:01.045Z,15.60
2018-06-14T05:32:06.525Z,15.07
2018-06-14T05:33:12.034Z,12.67
2018-06-14T05:34:17.474Z,15.97
2018-06-14T05:35:22.913Z,15.90
2018-06-14T05:36:28.478Z,12.60
2018-06-14T05:37:33.616Z,17.20
2018-06-14T05:38:39.065Z,16.30
2018-06-14T05:39:44.462Z,17.20
2018-06-14T05:40:49.882Z,12.90
2018-06-14T05:41:55.354Z,13.33
2018-06-14T05:43:00.802Z,22.30
2018-06-14T05:44:06.305Z,16.37
2018-06-14T05:45:11.718Z,15.10
2018-06-14T05:46:17.148Z,16.40
2018-06-14T05:47:22.637Z,22.70
2018-06-14T05:48:28.068Z,17.13
2018-06-14T05:49:33.505Z,13.40
2018-06-14T05:50:39.009Z,16.17
2018-06-14T05:51:44.465Z,15.73
2018-06-14T05:52:49.857Z,14.73
2018-06-14T05:53:55.288Z,14.53
2018-06-14T05:55:00.739Z,13.70
2018-06-14T05:56:05.836Z,13.07
2018-06-14T05:57:11.300Z,23.37
2018-06-14T05:58:16.762Z,17.97
2018-06-14T05:59:22.231Z,15.20
2018-06-14T06:00:27.724Z,16.27
2018-06-14T06:01:33.178Z,11.43
2018-06-14T06:02:38.446Z,16.67
2018-06-14T06:03:43.805Z,18.77
2018-06-14T06:04:49.203Z,19.37
2018-06-14T06:05:54.673Z,18.07
2018-06-14T06:07:00.085Z,25.63
2018-06-14T06:08:05.508Z,14.17
2018-06-14T06:09:12.416Z,14.67
2018-06-14T06:10:17.956Z,18.47
2018-06-14T06:11:23.374Z,11.50
2018-06-14T06:12:28.802Z,14.20
2018-06-14T06:13:34.294Z,15.70
2018-06-14T06:14:39.708Z,15.50
2018-06-14T06:15:45.226Z,13.53
2018-06-14T06:16:50.753Z,13.53
2018-06-14T06:17:56.182Z,12.53
2018-06-14T06:19:01.633Z,12.93
2018-06-14T06:20:16.930Z,17.87
2018-06-14T06:21:22.832Z,14.80
2018-06-14T06:22:28.271Z,15.60
2018-06-14T06:23:33.774Z,16.13
2018-06-14T06:24:39.247Z,11.50
2018-06-14T06:25:44.653Z,13.87
2018-06-14T06:26:50.333Z,17.00
2018-06-14T06:27:55.748Z,13.60
2018-06-14T06:29:01.143Z,11.13
2018-06-14T06:30:06.893Z,19.90
2018-06-14T06:31:12.314Z,13.37
2018-06-14T06:32:18.157Z,14.73
2018-06-14T06:33:23.728Z,14.60
2018-06-14T06:34:29.461Z,13.20
2018-06-14T06:35:35.149Z,15.00
2018-06-14T06:36:40.762Z,11.57
2018-06-14T06:37:46.380Z,14.20
2018-06-14T06:38:51.856Z,10.90
2018-06-14T06:39:58.306Z,16.33
2018-06-14T06:41:03.769Z,13.30
2018-06-14T06:42:09.285Z,12.13
2018-06-14T06:43:14.806Z,12.83
2018-06-14T06:44:20.204Z,10.60
2018-06-14T06:45:25.691Z,11.33
2018-06-14T06:46:31.125Z,15.40
2018-06-14T06:47:36.552Z,14.00
2018-06-14T06:48:42.410Z,14.60
2018-06-14T06:49:48.187Z,11.40
2018-06-14T06:50:53.372Z,12.83
2018-06-14T06:51:58.697Z,14.50
2018-06-14T06:53:05.688Z,13.43
2018-06-14T06:54:11.560Z,15.07
2018-06-14T06:55:16.997Z,14.40
2018-06-14T06:56:22.396Z,11.67
2018-06-14T06:57:28.508Z,10.93
2018-06-14T06:58:33.936Z,13.83
2018-06-14T06:59:39.477Z,13.10
2018-06-14T07:00:44.881Z,10.40
2018-06-14T07:01:50.381Z,9.83
2018-06-14T07:02:55.855Z,11.13
2018-06-14T07:04:01.258Z,12.73
2018-06-14T07:05:07.285Z,12.47
2018-06-14T07:06:12.903Z,10.83
2018-06-14T07:07:18.161Z,9.00
2018-06-14T07:08:23.568Z,20.70
2018-06-14T07:09:28.950Z,15.60
2018-06-14T07:10:34.597Z,9.03
2018-06-14T07:11:40.001Z,9.80
2018-06-14T07:12:45.413Z,8.70
2018-06-14T07:13:50.865Z,8.80
2018-06-14T07:14:56.365Z,12.03
2018-06-14T07:16:01.805Z,16.13
2018-06-14T07:17:07.973Z,8.53
2018-06-14T07:18:13.497Z,9.20
2018-06-14T07:19:18.924Z,13.10
2018-06-14T07:20:24.380Z,10.63
2018-06-14T07:21:30.234Z,15.50
2018-06-14T07:22:35.634Z,12.63
2018-06-14T07:23:41.046Z,10.37
2018-06-14T07:24:46.533Z,8.07
2018-06-14T07:25:52.299Z,15.60
2018-06-14T07:26:58.112Z,11.10
2018-06-14T07:28:03.507Z,17.03
2018-06-14T07:29:08.926Z,13.73
2018-06-14T07:30:14.418Z,12.90
2018-06-14T07:31:19.890Z,13.37
2018-06-14T07:32:25.321Z,11.60
2018-06-14T07:33:30.782Z,11.97
2018-06-14T07:34:36.202Z,13.20
2018-06-14T07:35:41.738Z,11.23
2018-06-14T07:36:47.178Z,20.30
2018-06-14T07:37:52.627Z,11.50
2018-06-14T07:38:58.092Z,14.50
2018-06-14T07:40:03.646Z,14.67
2018-06-14T07:41:09.065Z,15.03
2018-06-14T07:42:14.457Z,14.20
2018-06-14T07:43:19.925Z,10.23
2018-06-14T07:44:25.440Z,12.40
2018-06-14T07:45:30.841Z,10.13
2018-06-14T07:46:36.239Z,9.60
2018-06-14T07:47:41.639Z,10.70
2018-06-14T07:48:47.056Z,15.70
2018-06-14T07:49:52.590Z,12.47
2018-06-14T07:50:58.397Z,18.73
2018-06-14T07:52:03.813Z,14.10
2018-06-14T07:53:09.221Z,10.77
2018-06-14T07:54:14.669Z,15.83
2018-06-14T07:55:20.088Z,11.43
2018-06-14T07:56:25.566Z,9.37
2018-06-14T07:57:30.957Z,12.33
2018-06-14T07:58:36.694Z,12.30
2018-06-14T07:59:42.100Z,11.17
2018-06-14T08:00:47.522Z,14.87
2018-06-14T08:01:53.318Z,12.33
2018-06-14T08:02:58.749Z,14.47
2018-06-14T08:04:04.161Z,10.73
2018-06-14T08:05:09.618Z,12.90
2018-06-14T08:06:15.029Z,9.60
2018-06-14T08:07:20.609Z,20.57
2018-06-14T08:08:26.040Z,13.07
2018-06-14T08:09:31.526Z,10.40
2018-06-14T08:10:36.993Z,21.17
2018-06-14T08:11:42.695Z,15.60
2018-06-14T08:12:48.194Z,10.70
2018-06-14T08:13:53.620Z,8.97
2018-06-14T08:14:59.054Z,12.57
2018-06-14T08:16:04.506Z,12.47
2018-06-14T08:17:09.993Z,13.70
2018-06-14T08:18:15.618Z,12.20
2018-06-14T08:19:21.038Z,12.77
2018-06-14T08:20:26.737Z,6.70
2018-06-14T08:21:32.175Z,13.70
2018-06-14T08:22:37.625Z,6.80
2018-06-14T08:23:43.547Z,8.00
2018-06-14T08:24:48.973Z,8.53
2018-06-14T08:25:54.555Z,8.77
2018-06-14T08:26:59.977Z,13.37
2018-06-14T08:28:05.448Z,13.17
2018-06-14T08:29:11.113Z,11.37
2018-06-14T08:30:16.630Z,11.93
2018-06-14T08:31:22.070Z,9.77
2018-06-14T08:32:27.485Z,13.30
2018-06-14T08:33:33.100Z,14.80
2018-06-14T08:34:38.502Z,10.87
2018-06-14T08:35:43.898Z,13.60
2018-06-14T08:36:49.305Z,13.10
2018-06-14T08:37:54.761Z,10.40
2018-06-14T08:39:00.202Z,16.57
2018-06-14T08:40:05.741Z,10.97
2018-06-14T08:41:11.214Z,12.67
2018-06-14T08:42:16.661Z,13.10
2018-06-14T08:43:22.089Z,9.70
2018-06-14T08:44:27.710Z,8.73
2018-06-14T08:45:33.226Z,13.30
2018-06-14T08:46:38.613Z,11.47
2018-06-14T08:47:44.039Z,10.97
2018-06-14T08:48:49.456Z,12.90
2018-06-14T08:49:55.109Z,11.57
2018-06-14T08:51:00.559Z,13.17
2018-06-14T08:52:06.193Z,9.07
2018-06-14T08:53:11.604Z,9.53
2018-06-14T08:54:16.997Z,10.87
2018-06-14T08:55:22.443Z,15.63
2018-06-14T08:56:27.865Z,14.93
2018-06-14T08:57:33.470Z,7.30
2018-06-14T08:58:38.929Z,7.83
2018-06-14T08:59:44.316Z,8.33
2018-06-14T09:00:49.818Z,6.33
2018-06-14T09:01:55.289Z,11.07
2018-06-14T09:03:00.754Z,11.10
2018-06-14T09:04:06.272Z,10.77
2018-06-14T09:05:11.726Z,10.73
2018-06-14T09:06:17.181Z,10.03
2018-06-14T09:07:22.673Z,8.13
2018-06-14T09:08:28.361Z,6.73
2018-06-14T09:09:33.777Z,7.43
2018-06-14T09:10:39.217Z,7.20
2018-06-14T09:11:44.938Z,7.07
2018-06-14T09:12:50.503Z,9.67
2018-06-14T09:13:56.034Z,10.90
2018-06-14T09:15:01.475Z,7.13
2018-06-14T09:16:06.950Z,8.77
2018-06-14T09:17:12.359Z,8.50
2018-06-14T09:18:18.145Z,7.37
2018-06-14T09:19:23.717Z,13.07
2018-06-14T09:20:29.258Z,10.93
2018-06-14T09:21:34.695Z,11.90
2018-06-14T09:22:40.122Z,6.37
2018-06-14T09:23:45.568Z,7.27
2018-06-14T09:24:51.214Z,12.17
2018-06-14T09:25:56.618Z,13.03
2018-06-14T09:27:02.057Z,6.83
2018-06-14T09:28:07.498Z,11.23
2018-06-14T09:29:12.926Z,9.50
2018-06-14T09:30:18.728Z,12.73
2018-06-14T09:31:24.169Z,14.37
2018-06-14T09:32:29.565Z,7.47
2018-06-14T09:33:34.979Z,11.40
2018-06-14T09:34:40.409Z,14.03
2018-06-14T09:35:45.883Z,9.50
2018-06-14T09:36:51.342Z,10.07
2018-06-14T09:37:56.741Z,12.87
2018-06-14T09:39:02.409Z,10.80
2018-06-14T09:40:07.875Z,5.80
2018-06-14T09:41:13.438Z,6.50
2018-06-14T09:42:18.854Z,7.53
2018-06-14T09:43:24.341Z,6.10
2018-06-14T09:44:29.766Z,10.03
2018-06-14T09:45:35.183Z,6.27
2018-06-14T09:46:40.652Z,6.93
2018-06-14T09:47:46.163Z,7.93
2018-06-14T09:48:57.369Z,10.23
2018-06-14T09:50:02.765Z,9.00
2018-06-14T09:51:08.225Z,9.37
2018-06-14T09:52:13.755Z,7.13
2018-06-14T09:53:19.197Z,8.40
2018-06-14T09:54:24.629Z,9.20
2018-06-14T09:55:30.043Z,10.23
2018-06-14T09:56:35.659Z,10.83
2018-06-14T09:57:41.109Z,14.10
2018-06-14T09:58:46.517Z,8.40
2018-06-14T09:59:52.394Z,8.13
2018-06-14T10:00:57.787Z,8.13
2018-06-14T10:02:03.246Z,7.80
2018-06-14T10:03:08.759Z,13.00
2018-06-14T10:04:14.213Z,10.87
2018-06-14T10:05:19.649Z,11.20
2018-06-14T10:06:25.076Z,8.73
2018-06-14T10:07:30.492Z,8.93
2018-06-14T10:08:35.888Z,12.50
2018-06-14T10:09:41.275Z,17.20
2018-06-14T10:10:46.683Z,7.50
2018-06-14T10:11:52.273Z,6.57
2018-06-14T10:12:57.871Z,13.73
2018-06-14T10:14:03.266Z,8.00
2018-06-14T10:15:08.696Z,9.57
2018-06-14T10:16:14.143Z,6.20
2018-06-14T10:17:19.539Z,9.17
2018-06-14T10:18:25.701Z,9.77
2018-06-14T10:19:31.115Z,10.90
2018-06-14T10:20:36.720Z,9.10
2018-06-14T10:21:42.156Z,9.80
2018-06-14T10:22:47.562Z,14.30
2018-06-14T10:23:53.157Z,9.03
2018-06-14T10:24:58.558Z,6.40
2018-06-14T10:26:03.996Z,8.57
2018-06-14T10:27:09.393Z,9.23
2018-06-14T10:28:14.816Z,9.20
2018-06-14T10:29:20.315Z,9.00
2018-06-14T10:30:25.732Z,6.60
2018-06-14T10:31:31.269Z,6.87
2018-06-14T10:32:36.705Z,8.90
2018-06-14T10:33:42.137Z,6.57
2018-06-14T10:34:47.754Z,8.30
2018-06-14T10:35:53.166Z,9.90
2018-06-14T10:36:58.599Z,6.53
2018-06-14T10:38:04.110Z,6.53
2018-06-14T10:39:09.874Z,9.83
2018-06-14T10:40:15.350Z,9.70
2018-06-14T10:41:21.732Z,7.20
2018-06-14T10:42:27.147Z,11.67
2018-06-14T10:43:32.615Z,7.57
2018-06-14T10:44:37.971Z,9.90
2018-06-14T10:45:43.525Z,8.20
2018-06-14T10:46:48.977Z,12.53
2018-06-14T10:47:54.349Z,8.57
2018-06-14T10:48:59.762Z,9.23
2018-06-14T10:50:05.199Z,7.97
2018-06-14T10:51:10.654Z,11.37
2018-06-14T10:52:16.128Z,6.97
2018-06-14T10:53:21.528Z,8.30
2018-06-14T10:54:27.283Z,6.23
2018-06-14T10:55:32.683Z,8.37
2018-06-14T10:56:38.396Z,8.50
2018-06-14T10:57:43.826Z,12.73
2018-06-14T10:58:49.231Z,10.63
2018-06-14T10:59:54.657Z,4.57
2018-06-14T11:01:00.173Z,6.87
2018-06-14T11:02:05.723Z,11.93
2018-06-14T11:03:11.232Z,7.23
2018-06-14T11:04:16.620Z,10.30
2018-06-14T11:05:22.026Z,9.87
2018-06-14T11:06:27.436Z,7.23
2018-06-14T11:07:32.854Z,7.70
2018-06-14T11:08:38.273Z,5.37
2018-06-14T11:09:43.694Z,7.57
2018-06-14T11:10:49.305Z,9.87
2018-06-14T11:11:54.700Z,9.23
2018-06-14T11:13:00.106Z,16.13
2018-06-14T11:14:05.641Z,9.00
2018-06-14T11:15:11.116Z,7.97
2018-06-14T11:16:16.525Z,8.20
2018-06-14T11:17:21.941Z,12.50
2018-06-14T11:18:27.396Z,10.37
2018-06-14T11:19:32.774Z,10.00
2018-06-14T11:20:38.334Z,9.50
2018-06-14T11:21:43.732Z,12.10
2018-06-14T11:22:49.149Z,8.90
2018-06-14T11:23:54.545Z,11.40
2018-06-14T11:25:01.800Z,8.70
2018-06-14T11:26:07.459Z,7.40
2018-06-14T11:27:12.868Z,11.40
2018-06-14T11:28:18.269Z,9.33
2018-06-14T11:29:23.698Z,7.07
2018-06-14T11:30:29.105Z,11.63
2018-06-14T11:31:34.581Z,8.90
2018-06-14T11:32:40.027Z,8.50
2018-06-14T11:33:45.437Z,9.63
2018-06-14T11:34:51.068Z,9.70
2018-06-14T11:35:57.490Z,11.47
2018-06-14T11:37:02.957Z,12.00
2018-06-14T11:38:08.408Z,13.30
2018-06-14T11:39:13.843Z,8.83
2018-06-14T11:40:19.281Z,9.07
2018-06-14T11:41:24.703Z,18.90
2018-06-14T11:42:30.163Z,8.70
2018-06-14T11:43:35.650Z,9.50
2018-06-14T11:44:41.077Z,7.70
2018-06-14T11:45:46.483Z,9.23
2018-06-14T11:46:51.910Z,10.73
2018-06-14T11:47:57.344Z,11.43
2018-06-14T11:49:02.816Z,9.10
2018-06-14T11:50:08.273Z,7.13
2018-06-14T11:51:13.886Z,5.90
2018-06-14T11:52:19.300Z,10.30
2018-06-14T11:53:24.698Z,5.57
2018-06-14T11:54:30.345Z,10.63
2018-06-14T11:55:35.753Z,12.23
2018-06-14T11:56:41.217Z,11.33
2018-06-14T11:57:46.638Z,7.73
2018-06-14T11:58:52.038Z,10.90
2018-06-14T12:00:05.843Z,9.00
2018-06-14T12:01:11.303Z,11.60
2018-06-14T12:02:17.069Z,8.63
2018-06-14T12:03:22.507Z,8.30
2018-06-14T12:04:27.886Z,8.10
2018-06-14T12:05:33.291Z,7.17
2018-06-14T12:06:38.724Z,11.83
2018-06-14T12:07:44.097Z,7.30
2018-06-14T12:08:49.519Z,10.07
2018-06-14T12:09:54.938Z,8.87
2018-06-14T12:11:00.353Z,10.67
2018-06-14T12:12:06.131Z,8.63
2018-06-14T12:13:11.576Z,10.53
2018-06-14T12:14:16.966Z,9.20
2018-06-14T12:15:22.748Z,6.67
2018-06-14T12:16:28.213Z,9.40
2018-06-14T12:17:33.624Z,8.47
2018-06-14T12:18:39.177Z,9.17
2018-06-14T12:19:44.574Z,11.93
2018-06-14T12:20:50.409Z,9.13
2018-06-14T12:21:55.904Z,10.10
2018-06-14T12:23:01.301Z,8.47
2018-06-14T12:24:07.114Z,11.40
2018-06-14T12:25:12.525Z,7.50
2018-06-14T12:26:17.938Z,7.70
2018-06-14T12:27:23.337Z,11.40
2018-06-14T12:28:28.782Z,8.03
2018-06-14T12:29:34.238Z,8.00
2018-06-14T12:30:39.846Z,7.63
2018-06-14T12:31:45.276Z,10.07
2018-06-14T12:32:50.711Z,8.80
2018-06-14T12:33:56.552Z,11.43
2018-06-14T12:35:01.939Z,8.30
2018-06-14T12:36:07.358Z,6.53
2018-06-14T12:37:12.785Z,9.37
2018-06-14T12:38:18.206Z,6.90
2018-06-14T12:39:23.840Z,8.33
2018-06-14T12:40:29.393Z,8.13
2018-06-14T12:41:34.937Z,8.87
2018-06-14T12:42:40.376Z,7.63
2018-06-14T12:43:45.804Z,9.17
2018-06-14T12:44:51.229Z,8.83
2018-06-14T12:45:56.628Z,6.80
2018-06-14T12:47:02.184Z,6.67
2018-06-14T12:48:07.638Z,8.30
2018-06-14T12:49:13.067Z,6.90
2018-06-14T12:50:18.466Z,6.90
2018-06-14T12:51:23.887Z,10.27
2018-06-14T12:52:29.373Z,7.70
2018-06-14T12:53:34.822Z,6.40
2018-06-14T12:54:40.217Z,8.47
2018-06-14T12:55:45.691Z,9.53
2018-06-14T12:56:51.259Z,5.97
2018-06-14T12:57:56.759Z,9.97
2018-06-14T12:59:02.301Z,9.23
2018-06-14T13:00:07.742Z,8.43
2018-06-14T13:01:13.138Z,10.70
2018-06-14T13:02:18.537Z,7.60
2018-06-14T13:03:24.017Z,4.60
2018-06-14T13:04:29.551Z,6.73
2018-06-14T13:05:34.956Z,8.40
2018-06-14T13:06:40.655Z,12.97
2018-06-14T13:07:46.063Z,6.67
2018-06-14T13:08:51.530Z,6.87
2018-06-14T13:09:56.967Z,10.90
2018-06-14T13:11:02.456Z,7.57
2018-06-14T13:12:08.042Z,7.37
2018-06-14T13:13:13.462Z,11.77
2018-06-14T13:14:18.909Z,10.33
2018-06-14T13:15:24.301Z,9.27
2018-06-14T13:16:29.738Z,10.67
2018-06-14T13:17:35.297Z,10.40
2018-06-14T13:18:40.892Z,7.83
2018-06-14T13:19:46.446Z,6.63
2018-06-14T13:20:52.253Z,9.27
2018-06-14T13:21:57.657Z,11.33
2018-06-14T13:23:03.157Z,10.90
2018-06-14T13:24:08.593Z,8.70
2018-06-14T13:25:14.258Z,9.83
2018-06-14T13:26:19.661Z,9.10
2018-06-14T13:27:25.168Z,9.93
2018-06-14T13:28:30.608Z,8.80
2018-06-14T13:29:36.147Z,8.07
2018-06-14T13:30:41.769Z,11.00
2018-06-14T13:31:47.180Z,9.33
2018-06-14T13:32:53.098Z,7.57
2018-06-14T13:33:58.529Z,9.77
2018-06-14T13:35:04.021Z,14.00
2018-06-14T13:36:09.837Z,12.30
2018-06-14T13:37:15.247Z,9.63
2018-06-14T13:38:20.845Z,9.00
2018-06-14T13:39:26.277Z,6.70
2018-06-14T13:40:32.098Z,8.00
2018-06-14T13:41:37.562Z,8.60
2018-06-14T13:42:43.026Z,8.90
2018-06-14T13:43:48.431Z,7.33
2018-06-14T13:44:53.835Z,9.07
2018-06-14T13:45:59.423Z,8.97
2018-06-14T13:47:04.923Z,10.40
2018-06-14T13:48:10.429Z,8.50
2018-06-14T13:49:15.941Z,9.53
2018-06-14T13:50:21.382Z,9.07
2018-06-14T13:51:26.830Z,19.23
2018-06-14T13:52:32.273Z,8.50
2018-06-14T13:53:37.699Z,9.40
2018-06-14T13:54:43.164Z,8.23
2018-06-14T13:55:48.649Z,10.37
2018-06-14T13:56:54.311Z,8.60
2018-06-14T13:57:59.686Z,8.50
2018-06-14T13:59:05.302Z,8.80
2018-06-14T14:00:10.789Z,9.80
2018-06-14T14:01:16.348Z,8.20
2018-06-14T14:02:22.070Z,8.67
2018-06-14T14:03:27.685Z,10.83
2018-06-14T14:04:32.841Z,12.10
2018-06-14T14:05:38.221Z,10.03
2018-06-14T14:06:43.766Z,10.40
2018-06-14T14:07:49.584Z,10.37
2018-06-14T14:08:55.019Z,9.90
2018-06-14T14:10:00.676Z,9.20
2018-06-14T14:11:06.120Z,12.70
2018-06-14T14:12:11.630Z,9.90